sensor_id;sensor_type;location;lat;lon;timestamp;P1;durP1;ratioP1;P2;durP2;ratioP2
5559;SDS011;2803;47.916;8.074;2022-07-11T00:02:11;4.43;;;1.90;;
5559;SDS011;2803;47.916;8.074;2022-07-11T00:04:38;5.20;;;1.80;;
5559;SDS011;2803;47.916;8.074;2022-07-11T00:07:05;2.40;;;1.47;;
5559;SDS011;2803;47.916;8.074;2022-07-11T00:09:32;2.23;;;1.67;;
5559;SDS011;2803;47.916;8.074;2022-07-11T00:12:00;3.83;;;2.00;;
5559;SDS011;2803;47.916;8.074;2022-07-11T00:14:28;4.13;;;1.70;;
5559;SDS011;2803;47.916;8.074;2022-07-11T00:16:54;1.97;;;1.77;;
5559;SDS011;2803;47.916;8.074;2022-07-11T00:19:21;2.70;;;2.00;;
5559;SDS011;2803;47.916;8.074;2022-07-11T00:21:49;3.50;;;1.50;;
5559;SDS011;2803;47.916;8.074;2022-07-11T00:24:16;3.00;;;1.50;;
5559;SDS011;2803;47.916;8.074;2022-07-11T00:26:44;4.70;;;1.90;;
5559;SDS011;2803;47.916;8.074;2022-07-11T00:29:12;2.23;;;1.70;;
5559;SDS011;2803;47.916;8.074;2022-07-11T00:31:39;3.00;;;1.50;;
5559;SDS011;2803;47.916;8.074;2022-07-11T00:34:06;4.10;;;2.23;;
5559;SDS011;2803;47.916;8.074;2022-07-11T00:36:32;4.83;;;1.80;;
5559;SDS011;2803;47.916;8.074;2022-07-11T00:38:59;5.43;;;1.60;;
5559;SDS011;2803;47.916;8.074;2022-07-11T00:41:26;2.50;;;1.43;;
5559;SDS011;2803;47.916;8.074;2022-07-11T00:43:53;2.60;;;1.63;;
5559;SDS011;2803;47.916;8.074;2022-07-11T00:46:23;3.07;;;1.90;;
5559;SDS011;2803;47.916;8.074;2022-07-11T00:48:51;2.80;;;1.60;;
5559;SDS011;2803;47.916;8.074;2022-07-11T00:51:18;3.63;;;2.10;;
5559;SDS011;2803;47.916;8.074;2022-07-11T00:53:46;3.13;;;1.33;;
5559;SDS011;2803;47.916;8.074;2022-07-11T00:56:14;4.00;;;1.67;;
5559;SDS011;2803;47.916;8.074;2022-07-11T00:58:41;4.00;;;1.60;;
5559;SDS011;2803;47.916;8.074;2022-07-11T01:01:08;11.90;;;1.87;;
5559;SDS011;2803;47.916;8.074;2022-07-11T01:03:37;2.43;;;1.80;;
5559;SDS011;2803;47.916;8.074;2022-07-11T01:06:04;3.33;;;1.70;;
5559;SDS011;2803;47.916;8.074;2022-07-11T01:08:32;2.50;;;1.40;;
5559;SDS011;2803;47.916;8.074;2022-07-11T01:11:00;3.73;;;1.63;;
5559;SDS011;2803;47.916;8.074;2022-07-11T01:13:27;2.60;;;1.97;;
5559;SDS011;2803;47.916;8.074;2022-07-11T01:16:06;3.73;;;1.70;;
5559;SDS011;2803;47.916;8.074;2022-07-11T01:18:33;2.63;;;1.87;;
5559;SDS011;2803;47.916;8.074;2022-07-11T01:21:02;1.60;;;1.50;;
5559;SDS011;2803;47.916;8.074;2022-07-11T01:23:34;6.50;;;1.73;;
5559;SDS011;2803;47.916;8.074;2022-07-11T01:26:02;1.80;;;1.53;;
5559;SDS011;2803;47.916;8.074;2022-07-11T01:28:28;4.37;;;1.70;;
5559;SDS011;2803;47.916;8.074;2022-07-11T01:30:55;2.50;;;1.43;;
5559;SDS011;2803;47.916;8.074;2022-07-11T01:33:21;2.57;;;1.60;;
5559;SDS011;2803;47.916;8.074;2022-07-11T01:35:48;3.63;;;1.73;;
5559;SDS011;2803;47.916;8.074;2022-07-11T01:38:15;2.23;;;1.57;;
5559;SDS011;2803;47.916;8.074;2022-07-11T01:40:42;3.27;;;2.40;;
5559;SDS011;2803;47.916;8.074;2022-07-11T01:43:09;3.67;;;2.10;;
5559;SDS011;2803;47.916;8.074;2022-07-11T01:45:35;5.40;;;1.70;;
5559;SDS011;2803;47.916;8.074;2022-07-11T01:48:02;5.37;;;1.67;;
5559;SDS011;2803;47.916;8.074;2022-07-11T01:50:30;4.83;;;1.77;;
5559;SDS011;2803;47.916;8.074;2022-07-11T01:52:57;4.23;;;1.50;;
5559;SDS011;2803;47.916;8.074;2022-07-11T01:55:23;8.20;;;2.80;;
5559;SDS011;2803;47.916;8.074;2022-07-11T01:57:51;3.97;;;1.70;;
5559;SDS011;2803;47.916;8.074;2022-07-11T02:00:18;2.90;;;1.60;;
5559;SDS011;2803;47.916;8.074;2022-07-11T02:02:44;3.30;;;1.40;;
5559;SDS011;2803;47.916;8.074;2022-07-11T02:05:11;7.43;;;1.93;;
5559;SDS011;2803;47.916;8.074;2022-07-11T02:07:37;8.70;;;1.70;;
5559;SDS011;2803;47.916;8.074;2022-07-11T02:10:18;1.73;;;1.37;;
5559;SDS011;2803;47.916;8.074;2022-07-11T02:12:45;2.30;;;1.77;;
5559;SDS011;2803;47.916;8.074;2022-07-11T02:15:13;7.37;;;1.73;;
5559;SDS011;2803;47.916;8.074;2022-07-11T02:17:39;3.77;;;1.70;;
5559;SDS011;2803;47.916;8.074;2022-07-11T02:20:06;2.20;;;1.67;;
5559;SDS011;2803;47.916;8.074;2022-07-11T02:22:34;4.23;;;1.83;;
5559;SDS011;2803;47.916;8.074;2022-07-11T02:25:01;4.63;;;1.70;;
5559;SDS011;2803;47.916;8.074;2022-07-11T02:27:28;11.77;;;2.40;;
5559;SDS011;2803;47.916;8.074;2022-07-11T02:29:54;4.60;;;1.70;;
5559;SDS011;2803;47.916;8.074;2022-07-11T02:32:22;3.40;;;2.13;;
5559;SDS011;2803;47.916;8.074;2022-07-11T02:34:49;4.67;;;2.37;;
5559;SDS011;2803;47.916;8.074;2022-07-11T02:37:15;6.50;;;2.10;;
5559;SDS011;2803;47.916;8.074;2022-07-11T02:39:44;2.33;;;1.87;;
5559;SDS011;2803;47.916;8.074;2022-07-11T02:42:11;3.63;;;1.70;;
5559;SDS011;2803;47.916;8.074;2022-07-11T02:44:37;2.80;;;1.97;;
5559;SDS011;2803;47.916;8.074;2022-07-11T02:47:05;2.70;;;1.50;;
5559;SDS011;2803;47.916;8.074;2022-07-11T02:49:33;2.10;;;1.73;;
5559;SDS011;2803;47.916;8.074;2022-07-11T02:52:00;3.00;;;1.57;;
5559;SDS011;2803;47.916;8.074;2022-07-11T02:54:26;6.00;;;1.70;;
5559;SDS011;2803;47.916;8.074;2022-07-11T02:56:53;3.30;;;1.77;;
5559;SDS011;2803;47.916;8.074;2022-07-11T02:59:21;3.20;;;1.63;;
5559;SDS011;2803;47.916;8.074;2022-07-11T03:01:48;2.20;;;1.77;;
5559;SDS011;2803;47.916;8.074;2022-07-11T03:04:15;3.57;;;1.70;;
5559;SDS011;2803;47.916;8.074;2022-07-11T03:06:43;2.40;;;1.80;;
5559;SDS011;2803;47.916;8.074;2022-07-11T03:09:10;2.97;;;2.30;;
5559;SDS011;2803;47.916;8.074;2022-07-11T03:11:38;2.73;;;1.93;;
5559;SDS011;2803;47.916;8.074;2022-07-11T03:14:05;4.50;;;1.77;;
5559;SDS011;2803;47.916;8.074;2022-07-11T03:16:32;3.17;;;1.70;;
5559;SDS011;2803;47.916;8.074;2022-07-11T03:18:59;3.30;;;1.97;;
5559;SDS011;2803;47.916;8.074;2022-07-11T03:21:26;6.77;;;2.00;;
5559;SDS011;2803;47.916;8.074;2022-07-11T03:23:54;6.10;;;2.00;;
5559;SDS011;2803;47.916;8.074;2022-07-11T03:26:20;2.93;;;2.00;;
5559;SDS011;2803;47.916;8.074;2022-07-11T03:28:47;3.60;;;2.00;;
5559;SDS011;2803;47.916;8.074;2022-07-11T03:31:13;5.10;;;1.60;;
5559;SDS011;2803;47.916;8.074;2022-07-11T03:33:40;2.40;;;2.00;;
5559;SDS011;2803;47.916;8.074;2022-07-11T03:36:06;7.87;;;2.07;;
5559;SDS011;2803;47.916;8.074;2022-07-11T03:38:33;5.70;;;1.43;;
5559;SDS011;2803;47.916;8.074;2022-07-11T03:41:01;3.40;;;2.10;;
5559;SDS011;2803;47.916;8.074;2022-07-11T03:43:27;2.67;;;1.60;;
5559;SDS011;2803;47.916;8.074;2022-07-11T03:45:54;2.57;;;1.80;;
5559;SDS011;2803;47.916;8.074;2022-07-11T03:48:21;5.97;;;1.87;;
5559;SDS011;2803;47.916;8.074;2022-07-11T03:50:47;3.17;;;1.87;;
5559;SDS011;2803;47.916;8.074;2022-07-11T03:53:14;3.40;;;2.00;;
5559;SDS011;2803;47.916;8.074;2022-07-11T03:55:41;3.50;;;1.60;;
5559;SDS011;2803;47.916;8.074;2022-07-11T03:58:09;1.70;;;1.60;;
5559;SDS011;2803;47.916;8.074;2022-07-11T04:00:35;2.87;;;1.67;;
5559;SDS011;2803;47.916;8.074;2022-07-11T04:03:02;3.37;;;1.83;;
5559;SDS011;2803;47.916;8.074;2022-07-11T04:05:28;4.43;;;2.20;;
5559;SDS011;2803;47.916;8.074;2022-07-11T04:07:55;4.07;;;1.80;;
5559;SDS011;2803;47.916;8.074;2022-07-11T04:10:22;10.40;;;2.47;;
5559;SDS011;2803;47.916;8.074;2022-07-11T04:12:49;4.07;;;2.47;;
5559;SDS011;2803;47.916;8.074;2022-07-11T04:15:17;8.27;;;2.53;;
5559;SDS011;2803;47.916;8.074;2022-07-11T04:17:43;3.17;;;2.27;;
5559;SDS011;2803;47.916;8.074;2022-07-11T04:20:10;4.93;;;2.70;;
5559;SDS011;2803;47.916;8.074;2022-07-11T04:22:37;7.00;;;2.60;;
5559;SDS011;2803;47.916;8.074;2022-07-11T04:25:04;10.40;;;2.67;;
5559;SDS011;2803;47.916;8.074;2022-07-11T04:27:30;5.47;;;2.13;;
5559;SDS011;2803;47.916;8.074;2022-07-11T04:29:57;6.70;;;2.47;;
5559;SDS011;2803;47.916;8.074;2022-07-11T04:32:25;4.63;;;2.10;;
5559;SDS011;2803;47.916;8.074;2022-07-11T04:34:52;7.60;;;2.50;;
5559;SDS011;2803;47.916;8.074;2022-07-11T04:37:19;5.93;;;2.20;;
5559;SDS011;2803;47.916;8.074;2022-07-11T04:39:45;5.33;;;2.17;;
5559;SDS011;2803;47.916;8.074;2022-07-11T04:42:13;3.17;;;2.17;;
5559;SDS011;2803;47.916;8.074;2022-07-11T04:44:39;6.23;;;2.30;;
5559;SDS011;2803;47.916;8.074;2022-07-11T04:47:07;2.57;;;1.90;;
5559;SDS011;2803;47.916;8.074;2022-07-11T04:49:35;8.03;;;2.20;;
5559;SDS011;2803;47.916;8.074;2022-07-11T04:52:02;6.03;;;1.97;;
5559;SDS011;2803;47.916;8.074;2022-07-11T04:54:29;5.10;;;1.97;;
5559;SDS011;2803;47.916;8.074;2022-07-11T04:56:56;2.97;;;1.90;;
5559;SDS011;2803;47.916;8.074;2022-07-11T04:59:23;3.70;;;2.10;;
5559;SDS011;2803;47.916;8.074;2022-07-11T05:01:51;5.93;;;2.07;;
5559;SDS011;2803;47.916;8.074;2022-07-11T05:04:17;3.97;;;1.80;;
5559;SDS011;2803;47.916;8.074;2022-07-11T05:06:45;3.47;;;2.00;;
5559;SDS011;2803;47.916;8.074;2022-07-11T05:09:12;4.33;;;2.00;;
5559;SDS011;2803;47.916;8.074;2022-07-11T05:11:38;2.90;;;1.77;;
5559;SDS011;2803;47.916;8.074;2022-07-11T05:14:05;7.60;;;1.90;;
5559;SDS011;2803;47.916;8.074;2022-07-11T05:16:32;5.53;;;1.83;;
5559;SDS011;2803;47.916;8.074;2022-07-11T05:18:59;4.03;;;2.10;;
5559;SDS011;2803;47.916;8.074;2022-07-11T05:21:26;4.20;;;1.80;;
5559;SDS011;2803;47.916;8.074;2022-07-11T05:23:54;6.10;;;1.60;;
5559;SDS011;2803;47.916;8.074;2022-07-11T05:26:21;5.93;;;2.57;;
5559;SDS011;2803;47.916;8.074;2022-07-11T05:28:47;3.93;;;2.10;;
5559;SDS011;2803;47.916;8.074;2022-07-11T05:31:14;3.53;;;2.07;;
5559;SDS011;2803;47.916;8.074;2022-07-11T05:33:41;1.87;;;1.60;;
5559;SDS011;2803;47.916;8.074;2022-07-11T05:36:08;2.00;;;1.53;;
5559;SDS011;2803;47.916;8.074;2022-07-11T05:38:35;4.17;;;1.80;;
5559;SDS011;2803;47.916;8.074;2022-07-11T05:41:03;1.90;;;1.70;;
5559;SDS011;2803;47.916;8.074;2022-07-11T05:43:29;1.93;;;1.53;;
5559;SDS011;2803;47.916;8.074;2022-07-11T05:45:56;1.63;;;1.30;;
5559;SDS011;2803;47.916;8.074;2022-07-11T05:48:25;1.90;;;1.43;;
5559;SDS011;2803;47.916;8.074;2022-07-11T05:50:52;3.70;;;1.70;;
5559;SDS011;2803;47.916;8.074;2022-07-11T05:53:18;6.40;;;1.50;;
5559;SDS011;2803;47.916;8.074;2022-07-11T05:55:45;2.80;;;1.47;;
5559;SDS011;2803;47.916;8.074;2022-07-11T05:58:13;2.60;;;1.27;;
5559;SDS011;2803;47.916;8.074;2022-07-11T06:00:39;4.53;;;1.70;;
5559;SDS011;2803;47.916;8.074;2022-07-11T06:03:06;5.10;;;1.70;;
5559;SDS011;2803;47.916;8.074;2022-07-11T06:05:33;3.10;;;1.30;;
5559;SDS011;2803;47.916;8.074;2022-07-11T06:07:59;3.73;;;1.33;;
5559;SDS011;2803;47.916;8.074;2022-07-11T06:10:40;1.57;;;1.10;;
5559;SDS011;2803;47.916;8.074;2022-07-11T06:13:06;2.90;;;1.27;;
5559;SDS011;2803;47.916;8.074;2022-07-11T06:15:34;3.87;;;1.23;;
5559;SDS011;2803;47.916;8.074;2022-07-11T06:18:02;3.07;;;1.10;;
5559;SDS011;2803;47.916;8.074;2022-07-11T06:20:28;3.43;;;1.50;;
5559;SDS011;2803;47.916;8.074;2022-07-11T06:22:56;2.30;;;1.00;;
5559;SDS011;2803;47.916;8.074;2022-07-11T06:25:23;3.33;;;1.37;;
5559;SDS011;2803;47.916;8.074;2022-07-11T06:27:50;3.83;;;0.90;;
5559;SDS011;2803;47.916;8.074;2022-07-11T06:30:17;1.57;;;1.10;;
5559;SDS011;2803;47.916;8.074;2022-07-11T06:32:45;2.47;;;1.03;;
5559;SDS011;2803;47.916;8.074;2022-07-11T06:35:11;2.80;;;1.10;;
5559;SDS011;2803;47.916;8.074;2022-07-11T06:37:38;1.50;;;0.80;;
5559;SDS011;2803;47.916;8.074;2022-07-11T06:40:05;3.87;;;0.90;;
5559;SDS011;2803;47.916;8.074;2022-07-11T06:42:35;1.53;;;0.60;;
5559;SDS011;2803;47.916;8.074;2022-07-11T06:45:02;1.87;;;0.90;;
5559;SDS011;2803;47.916;8.074;2022-07-11T06:47:29;0.90;;;0.60;;
5559;SDS011;2803;47.916;8.074;2022-07-11T06:49:59;1.73;;;0.60;;
5559;SDS011;2803;47.916;8.074;2022-07-11T06:52:26;1.00;;;0.80;;
5559;SDS011;2803;47.916;8.074;2022-07-11T06:54:52;1.60;;;0.90;;
5559;SDS011;2803;47.916;8.074;2022-07-11T06:57:19;1.27;;;0.63;;
5559;SDS011;2803;47.916;8.074;2022-07-11T06:59:45;1.70;;;0.70;;
5559;SDS011;2803;47.916;8.074;2022-07-11T07:02:12;1.33;;;0.80;;
5559;SDS011;2803;47.916;8.074;2022-07-11T07:04:39;5.00;;;0.70;;
5559;SDS011;2803;47.916;8.074;2022-07-11T07:07:07;2.60;;;0.77;;
5559;SDS011;2803;47.916;8.074;2022-07-11T07:09:33;1.00;;;0.60;;
5559;SDS011;2803;47.916;8.074;2022-07-11T07:12:00;2.53;;;0.70;;
5559;SDS011;2803;47.916;8.074;2022-07-11T07:14:27;3.60;;;0.87;;
5559;SDS011;2803;47.916;8.074;2022-07-11T07:16:53;3.93;;;0.63;;
5559;SDS011;2803;47.916;8.074;2022-07-11T07:19:20;2.40;;;0.80;;
5559;SDS011;2803;47.916;8.074;2022-07-11T07:21:47;1.13;;;0.70;;
5559;SDS011;2803;47.916;8.074;2022-07-11T07:24:15;2.40;;;0.70;;
5559;SDS011;2803;47.916;8.074;2022-07-11T07:26:42;5.23;;;0.67;;
5559;SDS011;2803;47.916;8.074;2022-07-11T07:29:09;1.90;;;0.67;;
5559;SDS011;2803;47.916;8.074;2022-07-11T07:31:35;0.90;;;0.70;;
5559;SDS011;2803;47.916;8.074;2022-07-11T07:34:02;2.43;;;0.83;;
5559;SDS011;2803;47.916;8.074;2022-07-11T07:36:29;1.20;;;0.60;;
5559;SDS011;2803;47.916;8.074;2022-07-11T07:38:56;1.00;;;0.73;;
5559;SDS011;2803;47.916;8.074;2022-07-11T07:41:24;1.30;;;0.70;;
5559;SDS011;2803;47.916;8.074;2022-07-11T07:43:52;1.33;;;0.73;;
5559;SDS011;2803;47.916;8.074;2022-07-11T07:46:18;1.73;;;0.80;;
5559;SDS011;2803;47.916;8.074;2022-07-11T07:48:45;1.00;;;0.57;;
5559;SDS011;2803;47.916;8.074;2022-07-11T07:51:12;7.40;;;0.70;;
5559;SDS011;2803;47.916;8.074;2022-07-11T07:53:38;2.20;;;0.73;;
5559;SDS011;2803;47.916;8.074;2022-07-11T07:56:05;5.60;;;1.00;;
5559;SDS011;2803;47.916;8.074;2022-07-11T07:58:34;1.73;;;0.90;;
5559;SDS011;2803;47.916;8.074;2022-07-11T08:01:00;1.20;;;0.50;;
5559;SDS011;2803;47.916;8.074;2022-07-11T08:03:41;1.60;;;0.73;;
5559;SDS011;2803;47.916;8.074;2022-07-11T08:06:08;2.63;;;0.60;;
5559;SDS011;2803;47.916;8.074;2022-07-11T08:08:35;1.47;;;0.60;;
5559;SDS011;2803;47.916;8.074;2022-07-11T08:11:01;1.20;;;0.50;;
5559;SDS011;2803;47.916;8.074;2022-07-11T08:13:28;1.27;;;0.60;;
5559;SDS011;2803;47.916;8.074;2022-07-11T08:15:56;1.10;;;0.73;;
5559;SDS011;2803;47.916;8.074;2022-07-11T08:18:23;1.00;;;0.80;;
5559;SDS011;2803;47.916;8.074;2022-07-11T08:20:53;1.00;;;0.50;;
5559;SDS011;2803;47.916;8.074;2022-07-11T08:23:20;1.00;;;0.70;;
5559;SDS011;2803;47.916;8.074;2022-07-11T08:25:46;2.07;;;0.77;;
5559;SDS011;2803;47.916;8.074;2022-07-11T08:28:13;1.00;;;0.60;;
5559;SDS011;2803;47.916;8.074;2022-07-11T08:30:40;1.40;;;0.77;;
5559;SDS011;2803;47.916;8.074;2022-07-11T08:33:07;1.00;;;0.60;;
5559;SDS011;2803;47.916;8.074;2022-07-11T08:35:34;3.10;;;0.90;;
5559;SDS011;2803;47.916;8.074;2022-07-11T08:38:01;2.00;;;0.60;;
5559;SDS011;2803;47.916;8.074;2022-07-11T08:40:28;0.90;;;0.60;;
5559;SDS011;2803;47.916;8.074;2022-07-11T08:42:55;1.03;;;0.60;;
5559;SDS011;2803;47.916;8.074;2022-07-11T08:45:27;1.43;;;0.60;;
5559;SDS011;2803;47.916;8.074;2022-07-11T08:47:56;4.93;;;0.90;;
5559;SDS011;2803;47.916;8.074;2022-07-11T08:50:26;3.73;;;0.70;;
5559;SDS011;2803;47.916;8.074;2022-07-11T08:52:53;1.20;;;0.70;;
5559;SDS011;2803;47.916;8.074;2022-07-11T08:55:20;1.10;;;0.70;;
5559;SDS011;2803;47.916;8.074;2022-07-11T08:57:47;1.77;;;0.80;;
5559;SDS011;2803;47.916;8.074;2022-07-11T09:00:14;1.77;;;0.70;;
5559;SDS011;2803;47.916;8.074;2022-07-11T09:02:41;1.37;;;0.70;;
5559;SDS011;2803;47.916;8.074;2022-07-11T09:05:09;1.27;;;0.80;;
5559;SDS011;2803;47.916;8.074;2022-07-11T09:07:42;2.10;;;0.87;;
5559;SDS011;2803;47.916;8.074;2022-07-11T09:10:11;1.60;;;0.70;;
5559;SDS011;2803;47.916;8.074;2022-07-11T09:12:38;5.20;;;0.77;;
5559;SDS011;2803;47.916;8.074;2022-07-11T09:15:30;2.90;;;0.80;;
5559;SDS011;2803;47.916;8.074;2022-07-11T09:17:59;2.70;;;0.80;;
5559;SDS011;2803;47.916;8.074;2022-07-11T09:20:35;5.17;;;0.60;;
5559;SDS011;2803;47.916;8.074;2022-07-11T09:23:34;1.57;;;0.73;;
5559;SDS011;2803;47.916;8.074;2022-07-11T09:26:16;1.43;;;0.67;;
5559;SDS011;2803;47.916;8.074;2022-07-11T09:28:43;3.97;;;0.80;;
5559;SDS011;2803;47.916;8.074;2022-07-11T09:31:26;3.47;;;0.80;;
5559;SDS011;2803;47.916;8.074;2022-07-11T09:34:03;1.73;;;0.73;;
5559;SDS011;2803;47.916;8.074;2022-07-11T09:36:34;1.00;;;0.60;;
5559;SDS011;2803;47.916;8.074;2022-07-11T09:39:04;3.73;;;0.90;;
5559;SDS011;2803;47.916;8.074;2022-07-11T09:41:32;8.30;;;0.90;;
5559;SDS011;2803;47.916;8.074;2022-07-11T09:44:07;4.87;;;0.83;;
5559;SDS011;2803;47.916;8.074;2022-07-11T09:46:37;1.37;;;0.70;;
5559;SDS011;2803;47.916;8.074;2022-07-11T09:49:04;1.20;;;0.90;;
5559;SDS011;2803;47.916;8.074;2022-07-11T09:51:32;1.03;;;0.70;;
5559;SDS011;2803;47.916;8.074;2022-07-11T09:53:59;2.03;;;0.80;;
5559;SDS011;2803;47.916;8.074;2022-07-11T09:56:34;1.00;;;0.70;;
5559;SDS011;2803;47.916;8.074;2022-07-11T09:59:03;2.17;;;0.60;;
5559;SDS011;2803;47.916;8.074;2022-07-11T10:01:30;1.20;;;0.70;;
5559;SDS011;2803;47.916;8.074;2022-07-11T10:03:57;2.17;;;0.80;;
5559;SDS011;2803;47.916;8.074;2022-07-11T10:06:24;1.93;;;0.90;;
5559;SDS011;2803;47.916;8.074;2022-07-11T10:08:51;3.20;;;0.83;;
5559;SDS011;2803;47.916;8.074;2022-07-11T10:11:19;1.50;;;0.83;;
5559;SDS011;2803;47.916;8.074;2022-07-11T10:13:47;3.30;;;0.80;;
5559;SDS011;2803;47.916;8.074;2022-07-11T10:16:17;1.27;;;0.80;;
5559;SDS011;2803;47.916;8.074;2022-07-11T10:18:50;4.13;;;1.10;;
5559;SDS011;2803;47.916;8.074;2022-07-11T10:21:27;1.00;;;0.70;;
5559;SDS011;2803;47.916;8.074;2022-07-11T10:24:01;2.00;;;1.00;;
5559;SDS011;2803;47.916;8.074;2022-07-11T10:26:43;1.20;;;0.90;;
5559;SDS011;2803;47.916;8.074;2022-07-11T10:29:16;2.80;;;0.80;;
5559;SDS011;2803;47.916;8.074;2022-07-11T10:32:03;3.03;;;1.20;;
5559;SDS011;2803;47.916;8.074;2022-07-11T10:34:30;1.70;;;0.80;;
5559;SDS011;2803;47.916;8.074;2022-07-11T10:36:59;1.17;;;0.70;;
5559;SDS011;2803;47.916;8.074;2022-07-11T10:39:27;2.43;;;0.90;;
5559;SDS011;2803;47.916;8.074;2022-07-11T10:41:54;1.00;;;0.60;;
5559;SDS011;2803;47.916;8.074;2022-07-11T10:44:22;1.00;;;0.60;;
5559;SDS011;2803;47.916;8.074;2022-07-11T10:46:50;1.80;;;0.93;;
5559;SDS011;2803;47.916;8.074;2022-07-11T10:49:17;1.63;;;0.93;;
5559;SDS011;2803;47.916;8.074;2022-07-11T10:51:50;1.13;;;0.60;;
5559;SDS011;2803;47.916;8.074;2022-07-11T10:54:27;4.33;;;0.77;;
5559;SDS011;2803;47.916;8.074;2022-07-11T10:57:11;4.70;;;0.90;;
5559;SDS011;2803;47.916;8.074;2022-07-11T11:02:58;1.00;;;0.73;;
5559;SDS011;2803;47.916;8.074;2022-07-11T11:16:51;0.90;;;0.70;;
5559;SDS011;2803;47.916;8.074;2022-07-11T11:22:16;1.70;;;0.90;;
5559;SDS011;2803;47.916;8.074;2022-07-11T11:24:43;8.00;;;1.00;;
5559;SDS011;2803;47.916;8.074;2022-07-11T11:27:15;2.37;;;0.90;;
5559;SDS011;2803;47.916;8.074;2022-07-11T11:29:44;3.03;;;0.60;;
5559;SDS011;2803;47.916;8.074;2022-07-11T11:32:11;1.20;;;0.90;;
5559;SDS011;2803;47.916;8.074;2022-07-11T11:34:38;1.10;;;1.00;;
5559;SDS011;2803;47.916;8.074;2022-07-11T11:37:05;2.10;;;0.90;;
5559;SDS011;2803;47.916;8.074;2022-07-11T11:39:34;1.73;;;0.80;;
5559;SDS011;2803;47.916;8.074;2022-07-11T11:42:04;1.10;;;0.70;;
5559;SDS011;2803;47.916;8.074;2022-07-11T11:44:33;3.67;;;0.70;;
5559;SDS011;2803;47.916;8.074;2022-07-11T11:47:00;1.10;;;0.70;;
5559;SDS011;2803;47.916;8.074;2022-07-11T11:49:27;2.17;;;0.70;;
5559;SDS011;2803;47.916;8.074;2022-07-11T11:51:54;3.57;;;0.80;;
5559;SDS011;2803;47.916;8.074;2022-07-11T11:54:21;1.00;;;0.70;;
5559;SDS011;2803;47.916;8.074;2022-07-11T11:56:50;1.20;;;0.70;;
5559;SDS011;2803;47.916;8.074;2022-07-11T11:59:18;3.83;;;0.70;;
5559;SDS011;2803;47.916;8.074;2022-07-11T12:01:54;1.63;;;0.60;;
5559;SDS011;2803;47.916;8.074;2022-07-11T12:04:20;4.43;;;0.80;;
5559;SDS011;2803;47.916;8.074;2022-07-11T12:06:47;1.23;;;0.83;;
5559;SDS011;2803;47.916;8.074;2022-07-11T12:09:16;1.03;;;0.77;;
5559;SDS011;2803;47.916;8.074;2022-07-11T12:11:44;4.90;;;0.60;;
5559;SDS011;2803;47.916;8.074;2022-07-11T12:14:14;2.50;;;0.70;;
5559;SDS011;2803;47.916;8.074;2022-07-11T12:16:42;1.10;;;0.70;;
5559;SDS011;2803;47.916;8.074;2022-07-11T12:19:12;1.00;;;0.70;;
5559;SDS011;2803;47.916;8.074;2022-07-11T12:21:40;1.53;;;0.60;;
5559;SDS011;2803;47.916;8.074;2022-07-11T12:24:08;1.80;;;0.80;;
5559;SDS011;2803;47.916;8.074;2022-07-11T12:26:38;2.00;;;0.70;;
5559;SDS011;2803;47.916;8.074;2022-07-11T12:29:08;1.80;;;0.63;;
5559;SDS011;2803;47.916;8.074;2022-07-11T12:31:41;1.30;;;0.80;;
5559;SDS011;2803;47.916;8.074;2022-07-11T12:34:09;1.00;;;0.70;;
5559;SDS011;2803;47.916;8.074;2022-07-11T12:36:36;1.40;;;0.70;;
5559;SDS011;2803;47.916;8.074;2022-07-11T12:39:02;1.67;;;1.00;;
5559;SDS011;2803;47.916;8.074;2022-07-11T12:41:30;4.30;;;0.60;;
5559;SDS011;2803;47.916;8.074;2022-07-11T12:43:57;1.30;;;0.70;;
5559;SDS011;2803;47.916;8.074;2022-07-11T12:46:38;1.20;;;0.80;;
5559;SDS011;2803;47.916;8.074;2022-07-11T12:49:10;1.40;;;0.80;;
5559;SDS011;2803;47.916;8.074;2022-07-11T12:51:38;2.70;;;0.80;;
5559;SDS011;2803;47.916;8.074;2022-07-11T12:54:06;1.50;;;0.90;;
5559;SDS011;2803;47.916;8.074;2022-07-11T12:56:35;2.00;;;0.70;;
5559;SDS011;2803;47.916;8.074;2022-07-11T12:59:02;1.13;;;0.70;;
5559;SDS011;2803;47.916;8.074;2022-07-11T13:01:29;1.70;;;0.70;;
5559;SDS011;2803;47.916;8.074;2022-07-11T13:03:57;2.33;;;0.80;;
5559;SDS011;2803;47.916;8.074;2022-07-11T13:06:25;1.37;;;0.80;;
5559;SDS011;2803;47.916;8.074;2022-07-11T13:09:06;1.43;;;0.80;;
5559;SDS011;2803;47.916;8.074;2022-07-11T13:11:33;1.20;;;1.00;;
5559;SDS011;2803;47.916;8.074;2022-07-11T13:14:00;1.97;;;0.80;;
5559;SDS011;2803;47.916;8.074;2022-07-11T13:16:26;1.10;;;0.70;;
5559;SDS011;2803;47.916;8.074;2022-07-11T13:18:54;3.37;;;1.20;;
5559;SDS011;2803;47.916;8.074;2022-07-11T13:21:23;1.30;;;0.73;;
5559;SDS011;2803;47.916;8.074;2022-07-11T13:23:51;1.00;;;0.80;;
5559;SDS011;2803;47.916;8.074;2022-07-11T13:26:18;3.10;;;1.10;;
5559;SDS011;2803;47.916;8.074;2022-07-11T13:28:44;3.90;;;0.90;;
5559;SDS011;2803;47.916;8.074;2022-07-11T13:31:11;3.17;;;0.90;;
5559;SDS011;2803;47.916;8.074;2022-07-11T13:33:37;1.60;;;0.80;;
5559;SDS011;2803;47.916;8.074;2022-07-11T13:36:05;1.63;;;0.90;;
5559;SDS011;2803;47.916;8.074;2022-07-11T13:38:32;1.93;;;0.87;;
5559;SDS011;2803;47.916;8.074;2022-07-11T13:41:00;1.10;;;0.70;;
5559;SDS011;2803;47.916;8.074;2022-07-11T13:43:27;0.90;;;0.70;;
5559;SDS011;2803;47.916;8.074;2022-07-11T13:45:54;1.00;;;0.67;;
5559;SDS011;2803;47.916;8.074;2022-07-11T13:48:21;11.97;;;1.17;;
5559;SDS011;2803;47.916;8.074;2022-07-11T13:50:47;1.23;;;1.00;;
5559;SDS011;2803;47.916;8.074;2022-07-11T13:53:14;1.00;;;0.70;;
5559;SDS011;2803;47.916;8.074;2022-07-11T13:55:40;1.87;;;0.90;;
5559;SDS011;2803;47.916;8.074;2022-07-11T13:58:08;1.50;;;0.80;;
5559;SDS011;2803;47.916;8.074;2022-07-11T14:00:49;1.37;;;0.90;;
5559;SDS011;2803;47.916;8.074;2022-07-11T14:03:16;1.40;;;0.70;;
5559;SDS011;2803;47.916;8.074;2022-07-11T14:05:42;1.10;;;0.70;;
5559;SDS011;2803;47.916;8.074;2022-07-11T14:08:09;3.20;;;0.80;;
5559;SDS011;2803;47.916;8.074;2022-07-11T14:10:36;2.27;;;0.80;;
5559;SDS011;2803;47.916;8.074;2022-07-11T14:13:03;8.43;;;0.90;;
5559;SDS011;2803;47.916;8.074;2022-07-11T14:15:32;2.00;;;0.80;;
5559;SDS011;2803;47.916;8.074;2022-07-11T14:17:59;1.30;;;0.80;;
5559;SDS011;2803;47.916;8.074;2022-07-11T14:20:26;1.53;;;1.00;;
5559;SDS011;2803;47.916;8.074;2022-07-11T14:22:53;2.80;;;1.03;;
5559;SDS011;2803;47.916;8.074;2022-07-11T14:25:20;1.50;;;0.90;;
5559;SDS011;2803;47.916;8.074;2022-07-11T14:27:48;2.93;;;1.17;;
5559;SDS011;2803;47.916;8.074;2022-07-11T14:30:15;2.03;;;0.90;;
5559;SDS011;2803;47.916;8.074;2022-07-11T14:32:43;1.30;;;1.20;;
5559;SDS011;2803;47.916;8.074;2022-07-11T14:35:10;2.90;;;1.20;;
5559;SDS011;2803;47.916;8.074;2022-07-11T14:37:36;8.37;;;1.60;;
5559;SDS011;2803;47.916;8.074;2022-07-11T14:40:03;3.87;;;1.40;;
5559;SDS011;2803;47.916;8.074;2022-07-11T14:42:33;1.90;;;1.10;;
5559;SDS011;2803;47.916;8.074;2022-07-11T14:45:00;1.43;;;1.03;;
5559;SDS011;2803;47.916;8.074;2022-07-11T14:47:27;2.10;;;1.50;;
5559;SDS011;2803;47.916;8.074;2022-07-11T14:49:55;2.57;;;1.20;;
5559;SDS011;2803;47.916;8.074;2022-07-11T14:52:21;1.30;;;0.90;;
5559;SDS011;2803;47.916;8.074;2022-07-11T14:54:48;1.63;;;1.07;;
5559;SDS011;2803;47.916;8.074;2022-07-11T14:57:15;9.37;;;1.37;;
5559;SDS011;2803;47.916;8.074;2022-07-11T14:59:42;8.50;;;1.20;;
5559;SDS011;2803;47.916;8.074;2022-07-11T15:02:09;3.47;;;1.30;;
5559;SDS011;2803;47.916;8.074;2022-07-11T15:04:37;3.50;;;1.10;;
5559;SDS011;2803;47.916;8.074;2022-07-11T15:07:05;2.20;;;0.93;;
5559;SDS011;2803;47.916;8.074;2022-07-11T15:09:46;5.50;;;1.20;;
5559;SDS011;2803;47.916;8.074;2022-07-11T15:12:26;3.13;;;1.00;;
5559;SDS011;2803;47.916;8.074;2022-07-11T15:15:04;45.17;;;2.37;;
5559;SDS011;2803;47.916;8.074;2022-07-11T15:17:33;9.57;;;1.40;;
5559;SDS011;2803;47.916;8.074;2022-07-11T15:19:59;2.30;;;0.70;;
5559;SDS011;2803;47.916;8.074;2022-07-11T15:22:28;1.20;;;1.03;;
5559;SDS011;2803;47.916;8.074;2022-07-11T15:24:55;1.10;;;0.80;;
5559;SDS011;2803;47.916;8.074;2022-07-11T15:27:21;2.33;;;1.03;;
5559;SDS011;2803;47.916;8.074;2022-07-11T15:29:48;1.43;;;0.80;;
5559;SDS011;2803;47.916;8.074;2022-07-11T15:32:15;1.20;;;0.77;;
5559;SDS011;2803;47.916;8.074;2022-07-11T15:34:41;1.00;;;0.80;;
5559;SDS011;2803;47.916;8.074;2022-07-11T15:37:08;1.00;;;0.90;;
5559;SDS011;2803;47.916;8.074;2022-07-11T15:39:36;1.33;;;0.90;;